Time;durP1;ratioP1;P1;durP2;ratioP2;P2;SDS_P1;SDS_P2;PMS_P1;PMS_P2;Temp;Humidity;BMP_temperature;BMP_pressure;BME280_temperature;BME280_humidity;BME280_pressure;Samples;Min_cycle;Max_cycle;Signal;HPM_P1;HPM_P2
2022/01/31 00:02:14;;;;;;;1.82;0.57;;;;;;;0.88;69.93;98599.47;1751843;80;21119;-65
2022/01/31 00:04:42;;;;;;;2.40;0.60;;;;;;;0.87;70.08;98592.65;1749743;80;21082;-66
2022/01/31 00:07:10;;;;;;;1.62;0.80;;;;;;;0.83;69.80;98584.60;1723017;81;21118;-65
2022/01/31 00:09:40;;;;;;;2.08;0.62;;;;;;;0.81;70.00;98592.78;1743455;81;21644;-65
2022/01/31 00:14:43;;;;;;;2.58;0.70;;;;;;;0.82;69.98;98586.78;1848248;76;22229;-63
2022/01/31 00:17:09;;;;;;;3.15;0.72;;;;;;;0.76;69.59;98594.66;1823879;77;21060;-65
2022/01/31 00:19:37;;;;;;;2.10;0.70;;;;;;;0.71;69.79;98588.78;1821992;77;21111;-65
2022/01/31 00:22:05;;;;;;;;;;;;;;;0.62;69.94;98593.27;1827134;77;21003;-65
2022/01/31 00:24:36;;;;;;;1.82;0.72;;;;;;;0.55;69.88;98589.16;1802727;78;20182;-65
2022/01/31 00:27:05;;;;;;;2.37;0.95;;;;;;;0.48;69.86;98595.34;1815942;78;20946;-65
2022/01/31 00:29:31;;;;;;;1.57;0.72;;;;;;;0.44;70.02;98586.00;1825654;77;20970;-65
2022/01/31 00:31:58;;;;;;;3.37;0.82;;;;;;;0.36;70.09;98591.31;1824515;77;21498;-64
2022/01/31 00:34:25;;;;;;;4.33;1.00;;;;;;;0.30;70.13;98580.36;1823984;77;21980;-65
2022/01/31 00:36:52;;;;;;;3.80;0.77;;;;;;;0.25;70.18;98577.89;1825823;76;21554;-63
2022/01/31 00:39:19;;;;;;;5.10;0.80;;;;;;;0.19;70.30;98568.62;1823956;77;20993;-64
2022/01/31 00:41:45;;;;;;;5.28;0.70;;;;;;;0.14;70.45;98567.91;1824569;77;21068;-64
2022/01/31 00:44:23;;;;;;;3.02;0.60;;;;;;;0.10;70.48;98570.57;1823035;77;21373;-65
2022/01/31 00:46:59;;;;;;;3.70;1.37;;;;;;;0.06;70.41;98569.81;1807312;77;20958;-65
2022/01/31 00:49:35;;;;;;;2.05;0.68;;;;;;;0.03;70.39;98566.03;1822636;77;20899;-65
2022/01/31 00:51:55;;;;;;;6.08;0.95;;;;;;;-0.03;70.48;98557.17;1824149;77;21018;-64
2022/01/31 00:54:22;;;;;;;3.87;0.85;;;;;;;-0.07;70.52;98564.55;1820092;77;20976;-65
2022/01/31 00:56:50;;;;;;;3.55;0.53;;;;;;;-0.09;70.58;98559.87;1821780;77;21047;-65
2022/01/31 00:59:18;;;;;;;1.85;0.60;;;;;;;-0.13;70.59;98560.84;1825742;77;20911;-65
2022/01/31 01:01:45;;;;;;;1.57;0.95;;;;;;;-0.16;70.75;98550.66;1813749;77;22842;-65
2022/01/31 01:04:13;;;;;;;2.70;0.95;;;;;;;-0.21;70.75;98548.62;1821119;77;21021;-65
2022/01/31 01:06:40;;;;;;;3.52;1.10;;;;;;;-0.27;70.98;98551.72;1822859;77;27623;-64
2022/01/31 01:09:07;;;;;;;3.52;0.80;;;;;;;-0.29;70.98;98545.78;1818098;77;21555;-65
2022/01/31 01:11:35;;;;;;;3.22;0.90;;;;;;;-0.30;71.08;98530.44;1852550;76;28412;-64
2022/01/31 01:14:02;;;;;;;1.67;0.68;;;;;;;-0.33;71.13;98531.34;1819840;77;20981;-65
2022/01/31 01:16:29;;;;;;;4.28;1.25;;;;;;;-0.37;71.34;98536.13;1839132;77;20981;-64
2022/01/31 01:18:55;;;;;;;4.72;0.88;;;;;;;-0.42;71.22;98530.28;1832378;77;21672;-65
2022/01/31 01:21:22;;;;;;;3.05;1.00;;;;;;;-0.43;71.42;98535.42;1816885;77;21089;-64
2022/01/31 01:23:48;;;;;;;4.17;0.60;;;;;;;-0.47;71.58;98525.69;1823574;76;21008;-64
2022/01/31 01:26:15;;;;;;;5.70;1.02;;;;;;;-0.50;71.68;98527.03;1823431;77;22241;-64
2022/01/31 01:28:44;;;;;;;2.00;0.80;;;;;;;-0.53;71.65;98518.12;1804907;76;20938;-65
2022/01/31 01:31:10;;;;;;;4.90;1.25;;;;;;;-0.56;71.66;98509.20;1831895;77;21020;-64
2022/01/31 01:33:40;;;;;;;3.77;1.20;;;;;;;-0.54;71.74;98522.83;1821120;78;21141;-65
2022/01/31 01:36:07;;;;;;;3.90;0.93;;;;;;;-0.58;71.75;98525.07;1820005;78;21103;-65
2022/01/31 01:38:35;;;;;;;7.85;0.82;;;;;;;-0.60;71.84;98515.28;1819436;77;20994;-64
2022/01/31 01:41:03;;;;;;;13.15;1.02;;;;;;;-0.63;71.97;98519.19;1803239;77;21013;-65
2022/01/31 01:43:30;;;;;;;;;;;;;;;-0.68;72.35;98511.59;1804069;78;21326;-65
2022/01/31 01:45:57;;;;;;;;;;;;;;;-0.70;72.03;98509.08;1828770;77;21530;-64
2022/01/31 01:48:24;;;;;;;3.33;1.00;;;;;;;-0.73;72.16;98502.73;1819322;78;20125;-65
2022/01/31 01:50:51;;;;;;;7.20;1.00;;;;;;;-0.76;72.12;98504.05;1820703;77;21526;-64
2022/01/31 01:53:17;;;;;;;3.92;1.07;;;;;;;-0.79;72.18;98504.56;1820305;77;21017;-65
2022/01/31 01:55:47;;;;;;;2.25;0.80;;;;;;;-0.82;72.51;98505.47;1827700;77;21029;-65
2022/01/31 01:58:16;;;;;;;3.58;0.93;;;;;;;-0.85;72.24;98505.53;1821742;76;21407;-65
2022/01/31 02:00:59;;;;;;;2.67;0.80;;;;;;;-0.92;72.23;98503.98;1826997;77;21009;-64
2022/01/31 02:03:13;;;;;;;7.22;1.05;;;;;;;-0.95;72.79;98495.09;1815792;77;21582;-65
2022/01/31 02:05:41;;;;;;;3.95;1.17;;;;;;;-0.98;72.34;98495.12;1819736;77;20962;-65
2022/01/31 02:08:08;;;;;;;;;;;;;;;-1.02;72.28;98493.52;1803366;78;20985;-65
2022/01/31 02:10:35;;;;;;;3.37;1.05;;;;;;;-1.06;72.53;98494.47;1811697;78;21896;-65
2022/01/31 02:13:06;;;;;;;6.25;1.22;;;;;;;-1.10;72.47;98487.70;1838716;77;20941;-65
2022/01/31 02:15:33;;;;;;;3.62;1.45;;;;;;;-1.11;72.71;98486.02;1842188;76;21435;-65
2022/01/31 02:18:01;;;;;;;3.50;1.05;;;;;;;-1.13;72.84;98485.59;1837215;76;21018;-65
2022/01/31 02:20:28;;;;;;;3.98;1.62;;;;;;;-1.17;72.83;98477.58;1822609;77;20989;-65
2022/01/31 02:22:55;;;;;;;2.95;0.85;;;;;;;-1.19;73.02;98472.08;1831761;77;21834;-65
2022/01/31 02:25:22;;;;;;;3.37;1.00;;;;;;;-1.18;73.40;98478.43;1821712;78;21542;-64
2022/01/31 02:27:49;;;;;;;3.20;1.10;;;;;;;-1.21;72.93;98469.97;1819491;77;20993;-65
2022/01/31 02:30:18;;;;;;;1.35;0.70;;;;;;;-1.24;73.47;98468.31;1804585;77;21432;-65
2022/01/31 02:32:45;;;;;;;2.65;1.22;;;;;;;-1.26;73.27;98461.13;1820339;77;21452;-65
2022/01/31 02:35:12;;;;;;;2.45;1.10;;;;;;;-1.27;73.49;98460.70;1815658;77;21964;-65
2022/01/31 02:37:39;;;;;;;4.83;1.45;;;;;;;-1.25;73.39;98458.95;1815072;78;21065;-65
2022/01/31 02:40:08;;;;;;;4.62;0.93;;;;;;;-1.27;73.35;98461.97;1806258;78;21510;-65
2022/01/31 02:42:34;;;;;;;6.03;1.15;;;;;;;-1.29;73.83;98464.99;1825163;77;21338;-65
2022/01/31 02:45:02;;;;;;;2.77;1.17;;;;;;;-1.28;73.48;98466.70;1830580;77;20985;-64
2022/01/31 02:47:29;;;;;;;5.40;1.10;;;;;;;-1.28;73.39;98456.45;1829416;76;21453;-64
2022/01/31 02:49:59;;;;;;;;;;;;;;;-1.30;73.38;98459.48;1835029;77;21032;-65
2022/01/31 02:52:27;;;;;;;5.25;1.05;;;;;;;-1.33;73.49;98445.45;1813197;77;20186;-64
2022/01/31 02:54:53;;;;;;;3.55;1.12;;;;;;;-1.35;73.49;98458.28;1818355;77;21563;-64
2022/01/31 02:57:20;;;;;;;3.92;1.50;;;;;;;-1.36;73.61;98464.72;1815833;77;21091;-65
2022/01/31 02:59:46;;;;;;;4.95;1.40;;;;;;;-1.41;73.64;98461.41;1832343;77;22692;-65
2022/01/31 03:02:14;;;;;;;7.03;1.37;;;;;;;-1.44;73.61;98464.02;1837293;77;21024;-64
2022/01/31 03:04:40;;;;;;;;;;;;;;;-1.47;73.51;98462.80;1823089;77;21128;-65
2022/01/31 03:07:07;;;;;;;4.87;1.10;;;;;;;-1.49;73.77;98459.42;1824228;77;20125;-64
2022/01/31 03:09:37;;;;;;;3.47;1.20;;;;;;;-1.54;73.62;98458.66;1836129;77;20931;-64
2022/01/31 03:12:05;;;;;;;5.40;1.10;;;;;;;-1.60;73.83;98464.33;1828047;77;21385;-64
2022/01/31 03:14:32;;;;;;;3.02;1.00;;;;;;;-1.62;73.64;98454.55;1842389;76;20977;-64
2022/01/31 03:17:02;;;;;;;5.78;0.85;;;;;;;-1.63;73.86;98455.39;1823852;77;21016;-64
2022/01/31 03:19:27;;;;;;;6.12;1.37;;;;;;;-1.63;73.92;98461.80;1832022;77;20904;-64
2022/01/31 03:21:54;;;;;;;4.17;1.00;;;;;;;-1.66;73.93;98458.02;1841829;77;21127;-64
2022/01/31 03:24:20;;;;;;;3.90;1.17;;;;;;;-1.70;73.99;98464.08;1820729;77;21487;-64
2022/01/31 03:26:47;;;;;;;2.52;1.02;;;;;;;-1.69;73.93;98472.15;1828006;77;20871;-65
2022/01/31 03:29:13;;;;;;;5.13;1.33;;;;;;;-1.73;73.94;98469.25;1823531;76;21145;-65
2022/01/31 03:31:41;;;;;;;3.45;1.07;;;;;;;-1.73;74.05;98470.53;1830412;77;21268;-65
2022/01/31 03:34:08;;;;;;;4.58;1.27;;;;;;;-1.74;74.03;98467.54;1825515;77;20983;-65
2022/01/31 03:36:35;;;;;;;4.87;0.98;;;;;;;-1.75;74.07;98473.98;1836263;77;22409;-65
2022/01/31 03:39:02;;;;;;;4.50;1.50;;;;;;;-1.77;73.95;98472.72;1825017;77;22353;-65
2022/01/31 03:41:29;;;;;;;;;;;;;;;-1.80;73.98;98468.50;1807668;78;21005;-65
2022/01/31 03:43:55;;;;;;;6.17;1.47;;;;;;;-1.82;74.02;98475.38;1828505;77;20221;-65
2022/01/31 03:46:23;;;;;;;3.70;1.22;;;;;;;-1.84;74.08;98476.27;1818755;77;21044;-65
2022/01/31 03:48:50;;;;;;;5.47;1.20;;;;;;;-1.86;74.09;98461.37;1812497;77;21458;-64
2022/01/31 03:51:16;;;;;;;5.22;1.55;;;;;;;-1.86;74.15;98462.66;1829062;77;21021;-64
2022/01/31 03:53:43;;;;;;;7.40;0.83;;;;;;;-1.88;74.16;98459.27;1825178;77;21123;-65
2022/01/31 03:56:10;;;;;;;2.25;1.10;;;;;;;-1.89;74.08;98458.88;1821282;77;21329;-65
2022/01/31 03:58:36;;;;;;;1.98;0.90;;;;;;;-1.89;74.20;98457.59;1817286;77;21050;-64
2022/01/31 04:01:04;;;;;;;1.87;0.70;;;;;;;-1.90;74.26;98454.20;1797785;78;21460;-65
2022/01/31 04:03:30;;;;;;;4.62;1.22;;;;;;;-1.89;74.25;98462.70;1800245;78;21185;-65
2022/01/31 04:05:57;;;;;;;6.37;1.40;;;;;;;-1.89;74.21;98459.70;1816846;77;20985;-65
2022/01/31 04:08:24;;;;;;;4.58;1.25;;;;;;;-1.85;74.29;98455.38;1818646;78;20987;-65
2022/01/31 04:10:50;;;;;;;4.10;1.47;;;;;;;-1.81;74.28;98454.47;1819365;77;21032;-65
2022/01/31 04:13:18;;;;;;;4.42;1.10;;;;;;;-1.77;74.27;98450.12;1813217;77;21136;-65
2022/01/31 04:15:45;;;;;;;;;;;;;;;-1.74;74.29;98452.19;1823725;77;21043;-64
2022/01/31 04:18:12;;;;;;;4.58;1.17;;;;;;;-1.70;74.38;98456.40;1822903;77;20154;-65
2022/01/31 04:20:39;;;;;;;7.67;1.10;;;;;;;-1.67;74.30;98447.38;1824565;77;21040;-65
2022/01/31 04:23:11;;;;;;;4.40;1.10;;;;;;;-1.63;74.28;98443.04;1825977;77;20974;-65
2022/01/31 04:28:29;;;;;;;1.65;0.80;;;;;;;-1.56;74.28;98439.95;1818779;76;20996;-65
2022/01/31 04:31:01;;;;;;;5.67;1.22;;;;;;;-1.51;74.28;98436.84;1826872;77;21026;-65
2022/01/31 04:33:27;;;;;;;3.67;1.20;;;;;;;-1.47;74.25;98442.33;1820928;76;21357;-65
2022/01/31 04:35:55;;;;;;;4.67;0.98;;;;;;;-1.45;74.24;98443.98;1831878;77;21027;-65
2022/01/31 04:38:23;;;;;;;5.72;1.20;;;;;;;-1.41;74.24;98442.20;1822477;78;21447;-65
2022/01/31 04:40:50;;;;;;;3.83;1.35;;;;;;;-1.39;74.31;98436.18;1830868;77;20937;-65
2022/01/31 04:43:17;;;;;;;4.80;1.73;;;;;;;-1.34;74.29;98448.91;1807492;77;20919;-64
2022/01/31 04:45:47;;;;;;;4.35;1.50;;;;;;;-1.33;74.28;98440.34;1814439;77;21013;-64
2022/01/31 04:48:13;;;;;;;5.33;1.25;;;;;;;-1.32;74.21;98434.33;1818563;77;20997;-65
2022/01/31 04:50:40;;;;;;;3.90;1.15;;;;;;;-1.31;74.26;98419.39;1825247;77;21450;-65
2022/01/31 04:53:06;;;;;;;2.30;1.12;;;;;;;-1.31;74.20;98415.55;1825469;78;21021;-64
2022/01/31 04:55:34;;;;;;;4.20;1.00;;;;;;;-1.30;74.20;98426.19;1815352;77;20950;-64
2022/01/31 04:58:01;;;;;;;3.72;1.30;;;;;;;-1.29;74.28;98435.55;1832107;77;21068;-64
2022/01/31 05:00:28;;;;;;;4.62;1.55;;;;;;;-1.31;74.15;98423.23;1817616;77;21697;-64
2022/01/31 05:02:55;;;;;;;3.20;1.13;;;;;;;-1.30;74.26;98422.34;1825535;77;21038;-64
2022/01/31 05:05:21;;;;;;;2.65;1.12;;;;;;;-1.30;74.24;98428.75;1830524;77;20956;-64
2022/01/31 05:07:51;;;;;;;1.92;1.07;;;;;;;-1.32;74.22;98416.41;1824012;77;21045;-64
2022/01/31 05:10:16;;;;;;;3.05;1.30;;;;;;;-1.34;74.26;98418.17;1824232;78;21134;-64
2022/01/31 05:12:44;;;;;;;4.20;1.70;;;;;;;-1.36;74.20;98418.63;1828320;77;20926;-65
2022/01/31 05:15:11;;;;;;;4.72;1.65;;;;;;;-1.36;74.20;98418.63;1823072;77;21685;-65
2022/01/31 05:17:38;;;;;;;10.03;1.67;;;;;;;-1.36;74.38;98418.63;1818762;78;21389;-65
2022/01/31 05:20:06;;;;;;;5.47;1.52;;;;;;;-1.37;74.26;98414.40;1821744;77;21025;-64
2022/01/31 05:22:33;;;;;;;6.60;1.12;;;;;;;-1.39;74.31;98402.05;1821946;77;21696;-65
2022/01/31 05:25:00;;;;;;;3.70;1.05;;;;;;;-1.41;74.35;98411.48;1819647;78;21036;-65
2022/01/31 05:27:26;;;;;;;3.63;0.90;;;;;;;-1.44;74.30;98406.42;1816676;78;21436;-65
2022/01/31 05:29:53;;;;;;;4.00;1.37;;;;;;;-1.48;74.29;98412.05;1822048;78;22132;-65
2022/01/31 05:32:20;;;;;;;7.50;1.75;;;;;;;-1.50;74.28;98407.83;1822301;78;21557;-64
2022/01/31 05:34:47;;;;;;;3.90;0.90;;;;;;;-1.53;74.32;98401.49;1824922;78;20891;-65
2022/01/31 05:37:14;;;;;;;5.47;1.30;;;;;;;-1.59;74.35;98398.17;1825081;78;21536;-66
2022/01/31 05:39:42;;;;;;;2.55;1.00;;;;;;;-1.63;74.36;98393.97;1827779;77;22232;-64
2022/01/31 05:42:09;;;;;;;4.37;1.35;;;;;;;-1.66;74.40;98396.59;1821472;77;20919;-65
2022/01/31 05:44:36;;;;;;;6.72;1.77;;;;;;;-1.69;74.50;98383.86;1825460;78;20962;-64
2022/01/31 05:47:04;;;;;;;4.55;1.85;;;;;;;-1.70;74.54;98392.42;1824983;77;21122;-64
2022/01/31 05:49:30;;;;;;;3.85;1.62;;;;;;;-1.71;74.74;98388.19;1822581;78;20922;-65
2022/01/31 05:52:05;;;;;;;6.95;1.70;;;;;;;-1.69;74.66;98383.86;1823770;78;22265;-65
2022/01/31 05:54:35;;;;;;;7.55;1.67;;;;;;;-1.66;74.71;98378.67;1822262;77;21032;-65
2022/01/31 05:57:04;;;;;;;5.40;1.82;;;;;;;-1.65;74.70;98375.27;1822971;77;21036;-65
2022/01/31 05:59:31;;;;;;;5.97;1.82;;;;;;;-1.63;74.72;98381.61;1826709;77;21040;-65
2022/01/31 06:02:00;;;;;;;3.47;1.40;;;;;;;-1.61;74.74;98379.44;1824692;77;20950;-65
2022/01/31 06:04:30;;;;;;;7.97;2.17;;;;;;;-1.60;74.75;98381.14;1829253;77;21438;-65
2022/01/31 06:06:58;;;;;;;5.17;1.87;;;;;;;-1.60;74.76;98382.42;1823559;77;20974;-64
2022/01/31 06:09:27;;;;;;;2.75;1.15;;;;;;;-1.58;74.71;98369.13;1825132;78;21060;-65
2022/01/31 06:11:54;;;;;;;4.78;1.55;;;;;;;-1.59;74.74;98366.17;1819521;77;20969;-65
2022/01/31 06:14:21;;;;;;;5.15;1.77;;;;;;;-1.61;74.77;98359.40;1826563;77;21109;-65
2022/01/31 06:16:48;;;;;;;3.70;1.75;;;;;;;-1.63;74.81;98365.81;1823635;77;21493;-65
2022/01/31 06:19:15;;;;;;;4.15;1.52;;;;;;;-1.67;74.82;98368.05;1822316;77;21171;-66
2022/01/31 06:21:42;;;;;;;4.20;1.67;;;;;;;-1.70;74.84;98364.27;1822618;77;21495;-65
2022/01/31 06:24:10;;;;;;;4.17;1.50;;;;;;;-1.74;74.85;98363.91;1826067;77;20993;-65
2022/01/31 06:26:38;;;;;;;3.95;1.40;;;;;;;-1.77;74.92;98363.97;1824679;77;20983;-65
2022/01/31 06:29:05;;;;;;;;;;;;;;;-1.79;75.07;98364.45;1825845;77;21605;-66
2022/01/31 06:31:34;;;;;;;5.03;1.70;;;;;;;-1.82;75.31;98364.48;1820084;77;20093;-66
2022/01/31 06:34:02;;;;;;;3.67;1.60;;;;;;;-1.85;75.14;98362.86;1826964;77;20941;-65
2022/01/31 06:36:30;;;;;;;3.60;1.60;;;;;;;-1.86;75.09;98356.47;1820879;77;21265;-66
2022/01/31 06:38:56;;;;;;;6.53;1.85;;;;;;;-1.89;75.12;98354.81;1817254;77;21084;-65
2022/01/31 06:41:24;;;;;;;4.47;1.40;;;;;;;-1.90;75.14;98349.30;1824652;77;22454;-65
2022/01/31 06:43:52;;;;;;;3.50;1.90;;;;;;;-1.91;75.27;98341.64;1825549;77;20950;-66
2022/01/31 06:46:19;;;;;;;4.62;1.75;;;;;;;-1.93;75.14;98342.10;1816105;77;20988;-66
2022/01/31 06:48:47;;;;;;;8.58;2.22;;;;;;;-1.92;75.14;98341.25;1827897;77;21005;-65
2022/01/31 06:51:14;;;;;;;5.90;2.02;;;;;;;-1.93;75.21;98338.27;1820094;78;21480;-65
2022/01/31 06:53:42;;;;;;;4.70;2.10;;;;;;;-1.94;75.26;98334.03;1816246;77;21064;-65
2022/01/31 06:56:10;;;;;;;8.15;2.70;;;;;;;-1.90;75.29;98335.67;1817437;78;21611;-65
2022/01/31 06:58:37;;;;;;;8.00;2.30;;;;;;;-1.83;75.31;98344.90;1817636;78;20905;-65
2022/01/31 07:01:03;;;;;;;3.27;2.27;;;;;;;-1.78;75.37;98332.03;1820986;78;20963;-65
2022/01/31 07:03:30;;;;;;;5.75;2.10;;;;;;;-1.77;75.19;98334.54;1816827;78;21484;-65
2022/01/31 07:05:57;;;;;;;8.63;2.20;;;;;;;-1.78;75.24;98332.86;1815453;77;21893;-65
2022/01/31 07:08:23;;;;;;;7.57;2.40;;;;;;;-1.74;75.21;98341.31;1821088;77;20972;-66
2022/01/31 07:10:52;;;;;;;6.80;2.27;;;;;;;-1.85;75.24;98324.48;1820649;77;21007;-66
2022/01/31 07:16:02;;;;;;;6.05;2.20;;;;;;;-1.77;75.36;98342.22;1817773;78;21017;-66
2022/01/31 07:18:31;;;;;;;6.35;2.27;;;;;;;-1.80;75.50;98343.55;1821683;77;21926;-65
2022/01/31 07:20:58;;;;;;;5.22;2.27;;;;;;;-1.81;75.54;98341.88;1820456;77;20965;-66
2022/01/31 07:23:38;;;;;;;8.98;3.40;;;;;;;-1.81;75.56;98341.88;1821974;77;20930;-66
2022/01/31 07:25:56;;;;;;;8.53;2.70;;;;;;;-1.80;75.55;98342.28;1817821;77;21706;-65
2022/01/31 07:28:23;;;;;;;6.53;2.87;;;;;;;-1.78;75.61;98343.10;1817982;77;20959;-65
2022/01/31 07:30:52;;;;;;;6.50;2.20;;;;;;;-1.75;75.63;98336.64;1818062;78;21113;-65
2022/01/31 07:33:21;;;;;;;6.10;2.17;;;;;;;-1.71;75.71;98338.28;1814436;77;22227;-66
2022/01/31 07:35:50;;;;;;;7.28;2.27;;;;;;;-1.68;75.67;98342.05;1824747;77;20979;-66
2022/01/31 07:38:18;;;;;;;8.68;3.02;;;;;;;-1.63;75.71;98342.78;1821905;77;20927;-66
2022/01/31 07:40:46;;;;;;;7.90;2.72;;;;;;;-1.54;75.77;98346.03;1818492;78;21045;-66
2022/01/31 07:43:14;;;;;;;8.10;2.95;;;;;;;-1.50;75.65;98355.34;1823698;78;21076;-66
2022/01/31 07:45:41;;;;;;;5.87;2.90;;;;;;;-1.44;75.84;98352.66;1813802;77;21060;-66
2022/01/31 07:48:07;;;;;;;8.03;2.97;;;;;;;-1.34;75.86;98351.59;1816665;77;20934;-66
2022/01/31 07:50:37;;;;;;;5.53;2.72;;;;;;;-1.27;75.84;98353.14;1821977;78;20928;-66
2022/01/31 07:53:05;;;;;;;9.63;2.42;;;;;;;-1.23;75.76;98344.53;1816459;77;21087;-66
2022/01/31 07:55:33;;;;;;;6.65;3.17;;;;;;;-1.18;75.72;98347.80;1816668;77;21626;-66
2022/01/31 07:58:00;;;;;;;6.90;2.50;;;;;;;-1.16;75.62;98356.30;1792425;78;21045;-65
2022/01/31 08:00:29;;;;;;;7.50;2.30;;;;;;;-1.14;75.76;98346.87;1814998;77;21057;-66
2022/01/31 08:02:56;;;;;;;7.42;2.65;;;;;;;-1.09;75.63;98338.23;1823689;78;20967;-66
2022/01/31 08:05:23;;;;;;;6.20;2.42;;;;;;;-1.08;75.67;98330.53;1822001;77;20978;-66
2022/01/31 08:07:52;;;;;;;7.72;2.40;;;;;;;-1.02;75.73;98329.55;1826059;77;21865;-66
2022/01/31 08:10:19;;;;;;;4.75;1.77;;;;;;;-1.04;75.54;98338.98;1818694;77;20999;-66
2022/01/31 08:12:47;;;;;;;5.25;2.35;;;;;;;-1.01;75.71;98345.31;1823853;78;21038;-65
2022/01/31 08:15:23;;;;;;;6.42;2.10;;;;;;;-1.01;75.56;98342.34;1817089;77;21573;-66
2022/01/31 08:17:43;;;;;;;3.92;1.80;;;;;;;-1.04;75.62;98338.53;1791659;77;21513;-66
2022/01/31 08:20:11;;;;;;;6.35;2.30;;;;;;;-1.02;75.59;98326.98;1822984;77;21186;-66
2022/01/31 08:22:39;;;;;;;4.35;2.02;;;;;;;-1.00;75.72;98327.80;1815700;77;21048;-66
2022/01/31 08:25:13;;;;;;;;;;;;;;;-0.97;75.76;98326.45;1827917;77;21524;-66
2022/01/31 08:27:35;;;;;;;7.87;2.72;;;;;;;-0.95;75.69;98308.05;1814531;77;20510;-66
2022/01/31 08:30:09;;;;;;;4.40;1.67;;;;;;;-0.93;75.75;98308.83;1789470;77;26543;-65
2022/01/31 08:32:44;;;;;;;7.08;2.42;;;;;;;-0.94;75.45;98312.28;1832661;77;21545;-66
2022/01/31 08:37:50;;;;;;;7.42;2.25;;;;;;;-0.99;75.59;98303.85;1822451;77;20902;-65
2022/01/31 08:40:17;;;;;;;8.13;2.55;;;;;;;-0.96;75.43;98298.66;1820183;77;20937;-65
2022/01/31 08:42:44;;;;;;;;;;;;;;;-1.00;75.54;98289.38;1825352;77;20969;-66
2022/01/31 08:45:13;;;;;;;8.53;2.70;;;;;;;-1.00;75.59;98294.05;1828453;77;21100;-66
2022/01/31 08:47:41;;;;;;;7.28;2.50;;;;;;;-0.94;75.79;98291.78;1820393;77;21031;-65
2022/01/31 08:50:10;;;;;;;6.30;2.20;;;;;;;-0.92;75.63;98292.59;1827095;77;21062;-65
2022/01/31 08:52:38;;;;;;;5.55;2.35;;;;;;;-0.91;75.63;98297.67;1821602;77;20998;-66
2022/01/31 08:55:07;;;;;;;5.33;1.70;;;;;;;-0.90;75.77;98288.25;1823381;77;21546;-65
2022/01/31 08:57:36;;;;;;;6.47;1.87;;;;;;;-0.84;75.51;98286.85;1822510;77;20931;-66
2022/01/31 09:00:06;;;;;;;4.17;1.62;;;;;;;-0.87;75.60;98288.18;1824130;77;21006;-65
2022/01/31 09:02:37;;;;;;;6.60;1.15;;;;;;;-0.85;75.66;98283.86;1818196;78;21050;-65
2022/01/31 09:05:06;;;;;;;4.20;1.50;;;;;;;-0.84;75.55;98290.70;1819285;77;21525;-64
2022/01/31 09:07:33;;;;;;;6.00;1.52;;;;;;;-0.84;75.41;98285.57;1822242;77;20983;-65
2022/01/31 09:10:01;;;;;;;5.80;1.70;;;;;;;-0.87;75.44;98285.61;1817696;77;20955;-65
2022/01/31 09:12:32;;;;;;;6.17;1.72;;;;;;;-0.88;75.53;98283.94;1819636;77;20910;-65
2022/01/31 09:14:58;;;;;;;5.10;1.75;;;;;;;-0.87;75.63;98279.66;1817494;78;20905;-66
2022/01/31 09:17:27;;;;;;;5.55;1.65;;;;;;;-0.84;75.60;98280.45;1807033;77;20975;-66
2022/01/31 09:19:57;;;;;;;6.30;1.65;;;;;;;-0.87;75.33;98280.94;1761246;80;20958;-65
2022/01/31 09:22:24;;;;;;;5.55;1.45;;;;;;;-0.86;75.42;98286.04;1750574;80;21064;-66
2022/01/31 09:24:51;;;;;;;6.15;2.00;;;;;;;-0.86;75.54;98289.88;1752981;80;21000;-66
2022/01/31 09:27:18;;;;;;;3.50;1.62;;;;;;;-0.84;75.55;98288.13;1754539;80;21546;-66
2022/01/31 09:29:49;;;;;;;5.00;2.20;;;;;;;-0.84;75.46;98284.70;1753609;80;21005;-65
2022/01/31 09:32:20;;;;;;;5.37;2.17;;;;;;;-0.82;75.49;98282.50;1749909;81;21319;-66
2022/01/31 09:34:44;;;;;;;4.42;1.85;;;;;;;-0.75;75.69;98289.18;1752676;80;21030;-66
2022/01/31 09:37:10;;;;;;;6.20;2.22;;;;;;;-0.65;75.71;98282.53;1751777;80;21829;-66
2022/01/31 09:39:37;;;;;;;8.48;2.55;;;;;;;-0.57;75.67;98285.75;1754000;80;21042;-65
2022/01/31 09:42:13;;;;;;;4.40;2.00;;;;;;;-0.41;75.84;98287.05;1747716;80;21574;-65
2022/01/31 09:44:52;;;;;;;5.35;1.95;;;;;;;-0.34;75.68;98291.12;1753255;80;20906;-66
2022/01/31 09:47:23;;;;;;;4.10;1.98;;;;;;;-0.23;75.77;98286.55;1723857;80;21044;-67
2022/01/31 09:49:51;;;;;;;4.35;1.90;;;;;;;-0.10;75.37;98299.06;1752335;81;21739;-65
2022/01/31 09:52:18;;;;;;;5.60;1.95;;;;;;;-0.03;75.63;98294.14;1753643;80;21486;-65
2022/01/31 09:54:48;;;;;;;4.30;2.07;;;;;;;0.06;75.47;98294.36;1726008;81;20942;-66
2022/01/31 09:57:13;;;;;;;9.28;2.08;;;;;;;0.12;75.35;98292.45;1753078;81;21135;-66
2022/01/31 09:59:40;;;;;;;7.95;1.70;;;;;;;0.11;74.51;98295.92;1752854;81;21031;-66
2022/01/31 10:02:29;;;;;;;4.10;1.67;;;;;;;0.02;73.69;98296.15;1753219;81;20933;-66
2022/01/31 10:04:56;;;;;;;5.90;2.05;;;;;;;-0.07;74.43;98297.25;1732753;81;21074;-65
2022/01/31 10:07:23;;;;;;;6.85;2.02;;;;;;;-0.07;74.89;98304.11;1719235;82;21172;-64
2022/01/31 10:09:50;;;;;;;;;;;;;;;-0.10;74.01;98306.76;1730230;81;21032;-64
2022/01/31 10:16:24;;;;;;;7.90;2.47;;;;;;;-0.16;74.55;98304.36;1723645;81;20446;-65
2022/01/31 10:17:43;;;;;;;;;;;;;;;-0.03;75.10;98295.43;1729352;82;20984;-65
2022/01/31 10:20:30;;;;;;;7.30;1.90;;;;;;;0.06;74.63;98293.91;1700956;82;20186;-65
2022/01/31 10:23:11;;;;;;;5.20;2.15;;;;;;;-0.07;73.84;98298.98;1720812;82;21007;-65
2022/01/31 10:25:38;;;;;;;7.60;1.92;;;;;;;-0.15;74.15;98290.64;1723146;82;21054;-65
2022/01/31 10:28:18;;;;;;;7.33;2.00;;;;;;;-0.23;74.07;98287.83;1724668;81;21533;-65
2022/01/31 10:30:47;;;;;;;4.03;1.07;;;;;;;-0.27;73.85;98284.95;1719273;81;21036;-65
2022/01/31 10:33:17;;;;;;;4.20;1.35;;;;;;;-0.33;73.32;98290.25;1726120;82;21004;-65
2022/01/31 10:35:44;;;;;;;3.92;1.27;;;;;;;-0.36;73.11;98295.47;1724493;81;21013;-65
2022/01/31 10:38:14;;;;;;;;;;;;;;;-0.34;73.75;98293.68;1708308;82;21173;-65
2022/01/31 10:52:37;;;;;;;3.58;1.65;;;;;;;-0.14;72.96;98282.05;1724892;82;21793;-66
2022/01/31 10:57:03;;;;;;;3.10;1.40;;;;;;;-0.12;72.96;98283.70;1697011;82;21008;-66
2022/01/31 10:59:40;;;;;;;10.95;2.67;;;;;;;-0.16;71.97;98288.97;1725259;81;20918;-65
2022/01/31 11:02:15;;;;;;;7.12;2.70;;;;;;;-0.24;72.19;98298.98;1720086;81;21050;-66
2022/01/31 11:04:46;;;;;;;11.43;1.98;;;;;;;-0.14;73.05;98285.90;1731093;82;22115;-66
2022/01/31 11:07:20;;;;;;;4.35;1.50;;;;;;;-0.07;72.80;98284.86;1721728;81;20986;-65
2022/01/31 11:09:52;;;;;;;7.25;1.90;;;;;;;0.04;72.92;98289.26;1726180;81;21301;-65
2022/01/31 11:12:22;;;;;;;4.12;1.87;;;;;;;0.15;73.38;98289.80;1724816;81;20973;-64
2022/01/31 11:14:48;;;;;;;5.25;1.82;;;;;;;0.24;72.29;98296.84;1721597;81;21014;-65
2022/01/31 11:17:17;;;;;;;3.87;1.50;;;;;;;0.13;71.51;98292.84;1721582;82;21418;-66
2022/01/31 11:19:55;;;;;;;5.53;1.42;;;;;;;0.15;72.07;98288.52;1714834;81;21052;-65
2022/01/31 11:22:27;;;;;;;4.87;1.42;;;;;;;0.18;71.94;98294.84;1720236;81;21028;-65
2022/01/31 11:24:52;;;;;;;4.03;1.20;;;;;;;0.32;72.35;98289.77;1725656;82;21005;-65
2022/01/31 11:27:24;;;;;;;5.50;1.27;;;;;;;0.36;71.26;98290.06;1722858;82;21032;-64
2022/01/31 11:29:56;;;;;;;2.17;1.10;;;;;;;0.33;71.11;98295.29;1725715;81;21088;-66
2022/01/31 11:32:26;;;;;;;5.47;1.10;;;;;;;0.35;70.18;98298.66;1728743;82;21502;-65
2022/01/31 11:34:55;;;;;;;3.37;1.45;;;;;;;0.42;70.68;98291.16;1723111;82;21068;-65
2022/01/31 11:37:25;;;;;;;3.40;1.55;;;;;;;0.38;70.37;98298.57;1721252;82;21083;-65
2022/01/31 11:39:57;;;;;;;2.65;0.93;;;;;;;0.32;68.85;98298.75;1729323;82;21099;-65
2022/01/31 11:42:24;;;;;;;5.50;1.22;;;;;;;0.29;69.35;98295.00;1725909;82;21142;-65
2022/01/31 11:45:03;;;;;;;;;;;;;;;0.33;69.71;98288.88;1732364;81;21075;-65
2022/01/31 11:47:33;;;;;;;6.47;1.30;;;;;;;0.42;69.18;98287.31;1723648;81;20096;-66
2022/01/31 11:53:00;;;;;;;2.77;1.10;;;;;;;0.79;70.66;98287.52;1739307;82;20911;-65
2022/01/31 11:55:33;;;;;;;3.35;1.27;;;;;;;0.84;68.68;98292.92;1737458;82;21356;-65
2022/01/31 11:58:00;;;;;;;2.95;1.45;;;;;;;0.86;69.82;98300.56;1747082;81;20985;-66
2022/01/31 12:00:28;;;;;;;4.30;1.32;;;;;;;0.81;69.38;98290.86;1740239;80;20999;-65
2022/01/31 12:03:05;;;;;;;4.10;1.60;;;;;;;0.77;70.14;98290.58;1740218;80;21471;-66
2022/01/31 12:05:36;;;;;;;3.55;1.37;;;;;;;0.61;68.81;98284.59;1738869;80;20935;-63
2022/01/31 12:08:12;;;;;;;4.70;1.65;;;;;;;0.43;69.07;98286.45;1738421;81;21801;-65
2022/01/31 12:11:14;;;;;;;3.45;1.12;;;;;;;0.39;69.63;98289.97;1741222;80;21108;-64
2022/01/31 12:13:48;;;;;;;3.67;1.10;;;;;;;0.32;69.76;98284.63;1709555;82;21560;-65
2022/01/31 12:19:45;;;;;;;5.10;1.20;;;;;;;0.20;69.21;98293.09;1738442;80;20986;-66